sensor_id;sensor_type;location;lat;lon;timestamp;P1;durP1;ratioP1;P2;durP2;ratioP2
11348;SDS011;5729;43.570;27.826;2023-06-14T00:01:00;4.15;;;2.55;;
11348;SDS011;5729;43.570;27.826;2023-06-14T00:03:27;4.65;;;3.00;;
11348;SDS011;5729;43.570;27.826;2023-06-14T00:05:53;6.82;;;6.20;;
11348;SDS011;5729;43.570;27.826;2023-06-14T00:08:19;71.38;;;63.90;;
11348;SDS011;5729;43.570;27.826;2023-06-14T00:10:46;77.80;;;68.60;;
11348;SDS011;5729;43.570;27.826;2023-06-14T00:13:11;73.60;;;63.50;;
11348;SDS011;5729;43.570;27.826;2023-06-14T00:15:37;46.75;;;40.25;;
11348;SDS011;5729;43.570;27.826;2023-06-14T00:18:03;32.45;;;21.83;;
11348;SDS011;5729;43.570;27.826;2023-06-14T00:20:30;12.32;;;10.48;;
11348;SDS011;5729;43.570;27.826;2023-06-14T00:22:58;7.68;;;6.13;;
11348;SDS011;5729;43.570;27.826;2023-06-14T00:25:24;5.88;;;4.72;;
11348;SDS011;5729;43.570;27.826;2023-06-14T00:27:55;7.82;;;3.95;;
11348;SDS011;5729;43.570;27.826;2023-06-14T00:30:21;4.25;;;3.70;;
11348;SDS011;5729;43.570;27.826;2023-06-14T00:32:47;3.80;;;3.28;;
11348;SDS011;5729;43.570;27.826;2023-06-14T00:35:13;3.60;;;3.30;;
11348;SDS011;5729;43.570;27.826;2023-06-14T00:37:39;5.07;;;3.40;;
11348;SDS011;5729;43.570;27.826;2023-06-14T00:40:05;3.90;;;3.42;;
11348;SDS011;5729;43.570;27.826;2023-06-14T00:42:31;6.07;;;3.60;;
11348;SDS011;5729;43.570;27.826;2023-06-14T00:44:57;6.28;;;3.30;;
11348;SDS011;5729;43.570;27.826;2023-06-14T00:47:23;4.45;;;3.35;;
11348;SDS011;5729;43.570;27.826;2023-06-14T00:49:49;4.40;;;3.35;;
11348;SDS011;5729;43.570;27.826;2023-06-14T00:52:18;6.80;;;3.75;;
11348;SDS011;5729;43.570;27.826;2023-06-14T00:54:44;4.30;;;3.88;;
11348;SDS011;5729;43.570;27.826;2023-06-14T00:57:10;4.18;;;3.75;;
11348;SDS011;5729;43.570;27.826;2023-06-14T00:59:47;6.82;;;4.32;;
11348;SDS011;5729;43.570;27.826;2023-06-14T01:02:13;4.25;;;3.75;;
11348;SDS011;5729;43.570;27.826;2023-06-14T01:04:43;4.95;;;3.80;;
11348;SDS011;5729;43.570;27.826;2023-06-14T01:07:28;5.38;;;4.22;;
11348;SDS011;5729;43.570;27.826;2023-06-14T01:15:35;7.28;;;3.92;;
11348;SDS011;5729;43.570;27.826;2023-06-14T01:18:03;4.32;;;3.92;;
11348;SDS011;5729;43.570;27.826;2023-06-14T01:20:30;6.45;;;4.22;;
11348;SDS011;5729;43.570;27.826;2023-06-14T01:22:57;4.13;;;3.65;;
11348;SDS011;5729;43.570;27.826;2023-06-14T01:25:23;6.63;;;4.30;;
11348;SDS011;5729;43.570;27.826;2023-06-14T01:27:52;4.72;;;3.95;;
11348;SDS011;5729;43.570;27.826;2023-06-14T01:30:20;5.03;;;4.53;;
11348;SDS011;5729;43.570;27.826;2023-06-14T01:32:47;4.47;;;4.07;;
11348;SDS011;5729;43.570;27.826;2023-06-14T01:35:15;5.22;;;4.72;;
11348;SDS011;5729;43.570;27.826;2023-06-14T01:37:41;7.13;;;4.50;;
11348;SDS011;5729;43.570;27.826;2023-06-14T01:40:08;5.05;;;4.55;;
11348;SDS011;5729;43.570;27.826;2023-06-14T01:42:36;4.90;;;4.40;;
11348;SDS011;5729;43.570;27.826;2023-06-14T01:45:03;5.65;;;4.90;;
11348;SDS011;5729;43.570;27.826;2023-06-14T01:47:31;6.30;;;5.00;;
11348;SDS011;5729;43.570;27.826;2023-06-14T01:49:57;5.43;;;4.88;;
11348;SDS011;5729;43.570;27.826;2023-06-14T01:52:23;5.95;;;4.78;;
11348;SDS011;5729;43.570;27.826;2023-06-14T01:54:49;7.70;;;5.35;;
11348;SDS011;5729;43.570;27.826;2023-06-14T01:57:17;5.35;;;4.85;;
11348;SDS011;5729;43.570;27.826;2023-06-14T01:59:43;6.53;;;5.53;;
11348;SDS011;5729;43.570;27.826;2023-06-14T02:02:13;7.35;;;5.22;;
11348;SDS011;5729;43.570;27.826;2023-06-14T02:04:40;6.55;;;5.80;;
11348;SDS011;5729;43.570;27.826;2023-06-14T02:07:06;11.60;;;5.82;;
11348;SDS011;5729;43.570;27.826;2023-06-14T02:09:31;6.35;;;5.65;;
11348;SDS011;5729;43.570;27.826;2023-06-14T02:11:57;6.80;;;5.85;;
11348;SDS011;5729;43.570;27.826;2023-06-14T02:14:22;9.43;;;6.18;;
11348;SDS011;5729;43.570;27.826;2023-06-14T02:16:48;11.48;;;6.15;;
11348;SDS011;5729;43.570;27.826;2023-06-14T02:19:17;10.82;;;6.60;;
11348;SDS011;5729;43.570;27.826;2023-06-14T02:21:43;9.68;;;6.80;;
11348;SDS011;5729;43.570;27.826;2023-06-14T02:24:08;6.88;;;6.18;;
11348;SDS011;5729;43.570;27.826;2023-06-14T02:26:35;7.25;;;6.55;;
11348;SDS011;5729;43.570;27.826;2023-06-14T02:29:00;9.20;;;6.65;;
11348;SDS011;5729;43.570;27.826;2023-06-14T02:31:26;7.82;;;7.03;;
11348;SDS011;5729;43.570;27.826;2023-06-14T02:33:52;7.57;;;6.88;;
11348;SDS011;5729;43.570;27.826;2023-06-14T02:36:18;10.13;;;7.32;;
11348;SDS011;5729;43.570;27.826;2023-06-14T02:38:43;8.60;;;7.25;;
11348;SDS011;5729;43.570;27.826;2023-06-14T02:41:10;10.65;;;7.30;;
11348;SDS011;5729;43.570;27.826;2023-06-14T02:43:35;13.77;;;7.00;;
11348;SDS011;5729;43.570;27.826;2023-06-14T02:46:01;11.00;;;7.72;;
11348;SDS011;5729;43.570;27.826;2023-06-14T02:48:27;10.75;;;7.45;;
11348;SDS011;5729;43.570;27.826;2023-06-14T02:50:52;11.30;;;7.88;;
11348;SDS011;5729;43.570;27.826;2023-06-14T02:53:18;8.52;;;7.18;;
11348;SDS011;5729;43.570;27.826;2023-06-14T02:55:43;10.15;;;7.47;;
11348;SDS011;5729;43.570;27.826;2023-06-14T03:13:00;11.52;;;9.18;;
11348;SDS011;5729;43.570;27.826;2023-06-14T03:15:26;9.40;;;8.30;;
11348;SDS011;5729;43.570;27.826;2023-06-14T03:17:52;11.23;;;8.57;;
11348;SDS011;5729;43.570;27.826;2023-06-14T03:20:18;9.35;;;7.82;;
11348;SDS011;5729;43.570;27.826;2023-06-14T03:22:44;9.68;;;8.68;;
11348;SDS011;5729;43.570;27.826;2023-06-14T03:25:11;9.25;;;7.88;;
11348;SDS011;5729;43.570;27.826;2023-06-14T03:27:36;10.18;;;8.23;;
11348;SDS011;5729;43.570;27.826;2023-06-14T03:30:02;12.48;;;8.65;;
11348;SDS011;5729;43.570;27.826;2023-06-14T03:32:27;12.50;;;8.20;;
11348;SDS011;5729;43.570;27.826;2023-06-14T03:34:53;9.52;;;8.02;;
11348;SDS011;5729;43.570;27.826;2023-06-14T03:37:18;9.88;;;8.13;;
11348;SDS011;5729;43.570;27.826;2023-06-14T03:39:44;10.90;;;8.80;;
11348;SDS011;5729;43.570;27.826;2023-06-14T03:42:12;9.38;;;8.13;;
11348;SDS011;5729;43.570;27.826;2023-06-14T03:44:38;11.05;;;8.00;;
11348;SDS011;5729;43.570;27.826;2023-06-14T03:47:04;9.15;;;7.55;;
11348;SDS011;5729;43.570;27.826;2023-06-14T03:49:29;10.82;;;7.47;;
11348;SDS011;5729;43.570;27.826;2023-06-14T03:51:55;9.65;;;7.68;;
11348;SDS011;5729;43.570;27.826;2023-06-14T03:54:21;8.80;;;7.32;;
11348;SDS011;5729;43.570;27.826;2023-06-14T03:56:47;9.35;;;8.10;;
11348;SDS011;5729;43.570;27.826;2023-06-14T03:59:12;9.43;;;7.88;;
11348;SDS011;5729;43.570;27.826;2023-06-14T04:01:38;10.95;;;7.75;;
11348;SDS011;5729;43.570;27.826;2023-06-14T04:04:09;8.35;;;7.32;;
11348;SDS011;5729;43.570;27.826;2023-06-14T04:06:35;10.75;;;7.80;;
11348;SDS011;5729;43.570;27.826;2023-06-14T04:09:00;10.00;;;8.07;;
11348;SDS011;5729;43.570;27.826;2023-06-14T04:11:27;10.32;;;7.50;;
11348;SDS011;5729;43.570;27.826;2023-06-14T04:13:53;9.23;;;7.63;;
11348;SDS011;5729;43.570;27.826;2023-06-14T04:16:18;9.48;;;8.57;;
11348;SDS011;5729;43.570;27.826;2023-06-14T04:18:44;9.23;;;7.63;;
11348;SDS011;5729;43.570;27.826;2023-06-14T04:21:11;10.05;;;7.85;;
11348;SDS011;5729;43.570;27.826;2023-06-14T04:23:37;11.77;;;7.50;;
11348;SDS011;5729;43.570;27.826;2023-06-14T04:26:03;8.90;;;7.97;;
11348;SDS011;5729;43.570;27.826;2023-06-14T04:28:29;8.98;;;7.38;;
11348;SDS011;5729;43.570;27.826;2023-06-14T04:30:55;12.25;;;7.47;;
11348;SDS011;5729;43.570;27.826;2023-06-14T04:33:21;11.23;;;8.15;;
11348;SDS011;5729;43.570;27.826;2023-06-14T04:35:47;9.52;;;8.45;;
11348;SDS011;5729;43.570;27.826;2023-06-14T04:38:13;11.55;;;7.93;;
11348;SDS011;5729;43.570;27.826;2023-06-14T04:40:41;9.98;;;7.95;;
11348;SDS011;5729;43.570;27.826;2023-06-14T04:43:11;9.77;;;7.28;;
11348;SDS011;5729;43.570;27.826;2023-06-14T04:45:40;9.32;;;7.20;;
11348;SDS011;5729;43.570;27.826;2023-06-14T04:48:06;9.50;;;7.95;;
11348;SDS011;5729;43.570;27.826;2023-06-14T04:50:31;10.20;;;7.47;;
11348;SDS011;5729;43.570;27.826;2023-06-14T04:52:58;10.45;;;7.10;;
11348;SDS011;5729;43.570;27.826;2023-06-14T04:55:24;8.75;;;7.13;;
11348;SDS011;5729;43.570;27.826;2023-06-14T04:57:51;9.57;;;7.30;;
11348;SDS011;5729;43.570;27.826;2023-06-14T05:00:18;14.45;;;7.65;;
11348;SDS011;5729;43.570;27.826;2023-06-14T05:02:45;11.70;;;7.20;;
11348;SDS011;5729;43.570;27.826;2023-06-14T05:05:12;10.88;;;6.53;;
11348;SDS011;5729;43.570;27.826;2023-06-14T05:07:37;9.80;;;6.55;;
11348;SDS011;5729;43.570;27.826;2023-06-14T05:10:03;12.88;;;6.35;;
11348;SDS011;5729;43.570;27.826;2023-06-14T05:12:30;7.03;;;5.68;;
11348;SDS011;5729;43.570;27.826;2023-06-14T05:14:55;8.93;;;5.90;;
11348;SDS011;5729;43.570;27.826;2023-06-14T05:17:23;10.63;;;5.63;;
11348;SDS011;5729;43.570;27.826;2023-06-14T05:19:49;8.75;;;5.47;;
11348;SDS011;5729;43.570;27.826;2023-06-14T05:22:14;12.23;;;6.25;;
11348;SDS011;5729;43.570;27.826;2023-06-14T05:24:40;9.55;;;6.35;;
11348;SDS011;5729;43.570;27.826;2023-06-14T05:27:06;11.20;;;6.22;;
11348;SDS011;5729;43.570;27.826;2023-06-14T05:29:32;8.18;;;6.80;;
11348;SDS011;5729;43.570;27.826;2023-06-14T05:31:57;7.53;;;6.18;;
11348;SDS011;5729;43.570;27.826;2023-06-14T05:34:23;9.43;;;6.43;;
11348;SDS011;5729;43.570;27.826;2023-06-14T05:36:49;14.00;;;6.43;;
11348;SDS011;5729;43.570;27.826;2023-06-14T05:39:14;9.77;;;6.93;;
11348;SDS011;5729;43.570;27.826;2023-06-14T05:41:40;7.35;;;5.80;;
11348;SDS011;5729;43.570;27.826;2023-06-14T05:44:05;8.38;;;5.95;;
11348;SDS011;5729;43.570;27.826;2023-06-14T05:46:32;10.55;;;5.90;;
11348;SDS011;5729;43.570;27.826;2023-06-14T05:48:58;7.53;;;5.93;;
11348;SDS011;5729;43.570;27.826;2023-06-14T05:51:23;8.20;;;5.65;;
11348;SDS011;5729;43.570;27.826;2023-06-14T05:53:50;7.05;;;5.13;;
11348;SDS011;5729;43.570;27.826;2023-06-14T05:56:16;9.13;;;5.63;;
11348;SDS011;5729;43.570;27.826;2023-06-14T05:58:43;7.93;;;5.65;;
11348;SDS011;5729;43.570;27.826;2023-06-14T06:01:08;7.60;;;5.60;;
11348;SDS011;5729;43.570;27.826;2023-06-14T06:03:34;7.35;;;5.80;;
11348;SDS011;5729;43.570;27.826;2023-06-14T06:05:59;9.63;;;6.03;;
11348;SDS011;5729;43.570;27.826;2023-06-14T06:08:26;7.70;;;5.47;;
11348;SDS011;5729;43.570;27.826;2023-06-14T06:10:52;7.38;;;5.25;;
11348;SDS011;5729;43.570;27.826;2023-06-14T06:13:17;9.80;;;5.18;;
11348;SDS011;5729;43.570;27.826;2023-06-14T06:15:43;7.32;;;5.53;;
11348;SDS011;5729;43.570;27.826;2023-06-14T06:18:08;6.45;;;4.95;;
11348;SDS011;5729;43.570;27.826;2023-06-14T06:20:34;12.52;;;5.35;;
11348;SDS011;5729;43.570;27.826;2023-06-14T06:23:01;8.43;;;5.03;;
11348;SDS011;5729;43.570;27.826;2023-06-14T06:25:27;8.05;;;4.57;;
11348;SDS011;5729;43.570;27.826;2023-06-14T06:27:55;7.07;;;5.25;;
11348;SDS011;5729;43.570;27.826;2023-06-14T06:30:24;12.55;;;5.15;;
11348;SDS011;5729;43.570;27.826;2023-06-14T06:32:50;7.68;;;5.15;;
11348;SDS011;5729;43.570;27.826;2023-06-14T06:35:16;7.70;;;4.68;;
11348;SDS011;5729;43.570;27.826;2023-06-14T06:37:42;6.68;;;4.82;;
11348;SDS011;5729;43.570;27.826;2023-06-14T06:40:07;12.40;;;4.93;;
11348;SDS011;5729;43.570;27.826;2023-06-14T06:42:33;5.18;;;4.40;;
11348;SDS011;5729;43.570;27.826;2023-06-14T06:44:59;9.13;;;4.90;;
11348;SDS011;5729;43.570;27.826;2023-06-14T06:47:25;5.97;;;4.45;;
11348;SDS011;5729;43.570;27.826;2023-06-14T06:49:51;7.28;;;4.47;;
11348;SDS011;5729;43.570;27.826;2023-06-14T06:52:16;12.45;;;4.70;;
11348;SDS011;5729;43.570;27.826;2023-06-14T06:54:42;7.57;;;4.50;;
11348;SDS011;5729;43.570;27.826;2023-06-14T06:57:07;6.47;;;4.30;;
11348;SDS011;5729;43.570;27.826;2023-06-14T06:59:33;6.38;;;4.30;;
11348;SDS011;5729;43.570;27.826;2023-06-14T07:01:59;6.55;;;4.55;;
11348;SDS011;5729;43.570;27.826;2023-06-14T07:04:24;5.78;;;4.40;;
11348;SDS011;5729;43.570;27.826;2023-06-14T07:06:50;6.68;;;4.45;;
11348;SDS011;5729;43.570;27.826;2023-06-14T07:09:15;4.40;;;4.00;;
11348;SDS011;5729;43.570;27.826;2023-06-14T07:11:42;7.07;;;3.95;;
11348;SDS011;5729;43.570;27.826;2023-06-14T07:14:08;5.47;;;3.95;;
11348;SDS011;5729;43.570;27.826;2023-06-14T07:16:34;4.35;;;3.50;;
11348;SDS011;5729;43.570;27.826;2023-06-14T07:19:01;4.72;;;4.15;;
11348;SDS011;5729;43.570;27.826;2023-06-14T07:21:27;5.57;;;4.45;;
11348;SDS011;5729;43.570;27.826;2023-06-14T07:23:53;8.07;;;4.70;;
11348;SDS011;5729;43.570;27.826;2023-06-14T07:26:18;8.75;;;4.35;;
11348;SDS011;5729;43.570;27.826;2023-06-14T07:28:46;8.10;;;3.85;;
11348;SDS011;5729;43.570;27.826;2023-06-14T07:31:13;4.75;;;3.63;;
11348;SDS011;5729;43.570;27.826;2023-06-14T07:33:40;6.53;;;3.28;;
11348;SDS011;5729;43.570;27.826;2023-06-14T07:36:07;6.03;;;3.28;;
11348;SDS011;5729;43.570;27.826;2023-06-14T07:38:33;3.97;;;3.10;;
11348;SDS011;5729;43.570;27.826;2023-06-14T07:40:58;4.65;;;3.60;;
11348;SDS011;5729;43.570;27.826;2023-06-14T07:43:24;6.75;;;3.20;;
11348;SDS011;5729;43.570;27.826;2023-06-14T07:45:50;4.03;;;3.20;;
11348;SDS011;5729;43.570;27.826;2023-06-14T07:48:16;4.30;;;3.20;;
11348;SDS011;5729;43.570;27.826;2023-06-14T07:50:42;6.28;;;3.22;;
11348;SDS011;5729;43.570;27.826;2023-06-14T07:53:08;5.32;;;3.17;;
11348;SDS011;5729;43.570;27.826;2023-06-14T07:55:33;4.75;;;3.15;;
11348;SDS011;5729;43.570;27.826;2023-06-14T07:58:05;4.47;;;3.25;;
11348;SDS011;5729;43.570;27.826;2023-06-14T08:00:31;7.38;;;3.50;;
11348;SDS011;5729;43.570;27.826;2023-06-14T08:02:57;8.32;;;3.78;;
11348;SDS011;5729;43.570;27.826;2023-06-14T08:05:24;8.90;;;3.33;;
11348;SDS011;5729;43.570;27.826;2023-06-14T08:07:52;3.63;;;3.20;;
11348;SDS011;5729;43.570;27.826;2023-06-14T08:10:17;5.95;;;3.35;;
11348;SDS011;5729;43.570;27.826;2023-06-14T08:12:45;5.90;;;3.22;;
11348;SDS011;5729;43.570;27.826;2023-06-14T08:15:10;6.00;;;3.35;;
11348;SDS011;5729;43.570;27.826;2023-06-14T08:17:36;5.28;;;3.58;;
11348;SDS011;5729;43.570;27.826;2023-06-14T08:20:02;6.43;;;3.30;;
11348;SDS011;5729;43.570;27.826;2023-06-14T08:22:30;3.85;;;3.10;;
11348;SDS011;5729;43.570;27.826;2023-06-14T08:24:59;5.38;;;3.22;;
11348;SDS011;5729;43.570;27.826;2023-06-14T08:27:27;6.57;;;3.28;;
11348;SDS011;5729;43.570;27.826;2023-06-14T08:29:53;4.38;;;2.67;;
11348;SDS011;5729;43.570;27.826;2023-06-14T08:32:18;2.85;;;2.40;;
11348;SDS011;5729;43.570;27.826;2023-06-14T08:34:44;4.05;;;2.50;;
11348;SDS011;5729;43.570;27.826;2023-06-14T08:37:09;5.47;;;2.72;;
11348;SDS011;5729;43.570;27.826;2023-06-14T08:39:35;3.90;;;3.30;;
11348;SDS011;5729;43.570;27.826;2023-06-14T08:42:01;4.00;;;2.40;;
11348;SDS011;5729;43.570;27.826;2023-06-14T08:44:28;7.28;;;3.17;;
11348;SDS011;5729;43.570;27.826;2023-06-14T08:46:55;5.22;;;2.85;;
11348;SDS011;5729;43.570;27.826;2023-06-14T08:49:24;7.40;;;2.58;;
11348;SDS011;5729;43.570;27.826;2023-06-14T08:51:52;2.92;;;2.50;;
11348;SDS011;5729;43.570;27.826;2023-06-14T08:54:25;3.90;;;2.70;;
11348;SDS011;5729;43.570;27.826;2023-06-14T08:56:55;6.00;;;2.58;;
11348;SDS011;5729;43.570;27.826;2023-06-14T08:59:23;5.40;;;2.28;;
11348;SDS011;5729;43.570;27.826;2023-06-14T09:01:51;3.25;;;2.63;;
11348;SDS011;5729;43.570;27.826;2023-06-14T09:04:17;4.03;;;2.65;;
11348;SDS011;5729;43.570;27.826;2023-06-14T09:06:44;9.27;;;2.70;;
11348;SDS011;5729;43.570;27.826;2023-06-14T09:09:10;2.40;;;2.20;;
11348;SDS011;5729;43.570;27.826;2023-06-14T09:11:36;6.18;;;2.05;;
11348;SDS011;5729;43.570;27.826;2023-06-14T09:14:01;6.53;;;2.45;;
11348;SDS011;5729;43.570;27.826;2023-06-14T09:16:27;3.30;;;2.33;;
11348;SDS011;5729;43.570;27.826;2023-06-14T09:18:53;7.65;;;2.42;;
11348;SDS011;5729;43.570;27.826;2023-06-14T09:21:19;4.85;;;2.20;;
11348;SDS011;5729;43.570;27.826;2023-06-14T09:23:46;6.00;;;2.20;;
11348;SDS011;5729;43.570;27.826;2023-06-14T09:26:16;2.67;;;2.30;;
11348;SDS011;5729;43.570;27.826;2023-06-14T09:28:47;4.95;;;2.22;;
11348;SDS011;5729;43.570;27.826;2023-06-14T09:31:18;3.50;;;2.10;;
11348;SDS011;5729;43.570;27.826;2023-06-14T09:33:45;2.60;;;2.30;;
11348;SDS011;5729;43.570;27.826;2023-06-14T09:36:20;2.80;;;2.17;;
11348;SDS011;5729;43.570;27.826;2023-06-14T09:38:53;3.90;;;2.58;;
11348;SDS011;5729;43.570;27.826;2023-06-14T09:41:20;4.38;;;2.72;;
11348;SDS011;5729;43.570;27.826;2023-06-14T09:43:55;4.65;;;2.30;;
11348;SDS011;5729;43.570;27.826;2023-06-14T09:46:25;2.85;;;2.65;;
11348;SDS011;5729;43.570;27.826;2023-06-14T09:48:52;4.60;;;2.50;;
11348;SDS011;5729;43.570;27.826;2023-06-14T09:51:18;3.10;;;2.58;;
11348;SDS011;5729;43.570;27.826;2023-06-14T09:53:46;3.50;;;2.47;;
11348;SDS011;5729;43.570;27.826;2023-06-14T09:56:36;4.20;;;2.92;;
11348;SDS011;5729;43.570;27.826;2023-06-14T09:59:04;5.22;;;2.30;;
11348;SDS011;5729;43.570;27.826;2023-06-14T10:01:31;3.65;;;2.70;;
11348;SDS011;5729;43.570;27.826;2023-06-14T10:04:04;6.82;;;2.17;;
11348;SDS011;5729;43.570;27.826;2023-06-14T10:06:31;8.45;;;2.55;;
11348;SDS011;5729;43.570;27.826;2023-06-14T10:08:59;4.88;;;2.33;;
11348;SDS011;5729;43.570;27.826;2023-06-14T10:11:26;10.35;;;2.90;;
11348;SDS011;5729;43.570;27.826;2023-06-14T10:13:53;2.70;;;2.22;;
11348;SDS011;5729;43.570;27.826;2023-06-14T10:16:22;5.80;;;2.60;;
11348;SDS011;5729;43.570;27.826;2023-06-14T10:24:15;4.38;;;2.13;;
11348;SDS011;5729;43.570;27.826;2023-06-14T10:26:50;2.83;;;2.50;;
11348;SDS011;5729;43.570;27.826;2023-06-14T10:29:16;3.05;;;2.10;;
11348;SDS011;5729;43.570;27.826;2023-06-14T10:31:43;4.15;;;2.50;;
11348;SDS011;5729;43.570;27.826;2023-06-14T10:34:22;6.03;;;2.38;;
11348;SDS011;5729;43.570;27.826;2023-06-14T10:39:41;2.70;;;2.50;;
11348;SDS011;5729;43.570;27.826;2023-06-14T10:42:09;6.40;;;3.15;;
11348;SDS011;5729;43.570;27.826;2023-06-14T10:44:41;3.10;;;2.33;;
11348;SDS011;5729;43.570;27.826;2023-06-14T10:47:20;4.63;;;2.22;;
11348;SDS011;5729;43.570;27.826;2023-06-14T10:52:26;5.38;;;2.30;;
11348;SDS011;5729;43.570;27.826;2023-06-14T10:57:35;4.15;;;2.40;;
11348;SDS011;5729;43.570;27.826;2023-06-14T11:00:02;4.28;;;2.20;;
11348;SDS011;5729;43.570;27.826;2023-06-14T11:05:30;3.70;;;2.35;;
11348;SDS011;5729;43.570;27.826;2023-06-14T11:11:00;6.50;;;2.47;;
11348;SDS011;5729;43.570;27.826;2023-06-14T11:13:30;3.55;;;2.70;;
11348;SDS011;5729;43.570;27.826;2023-06-14T11:15:56;3.00;;;2.70;;
11348;SDS011;5729;43.570;27.826;2023-06-14T11:18:22;3.25;;;2.65;;
11348;SDS011;5729;43.570;27.826;2023-06-14T11:20:52;6.40;;;2.70;;
11348;SDS011;5729;43.570;27.826;2023-06-14T11:23:18;3.67;;;2.40;;
11348;SDS011;5729;43.570;27.826;2023-06-14T11:25:53;4.03;;;2.33;;
11348;SDS011;5729;43.570;27.826;2023-06-14T11:28:19;3.90;;;2.25;;
11348;SDS011;5729;43.570;27.826;2023-06-14T11:30:46;3.53;;;2.20;;
11348;SDS011;5729;43.570;27.826;2023-06-14T11:33:16;2.70;;;2.10;;
11348;SDS011;5729;43.570;27.826;2023-06-14T11:35:43;3.70;;;2.40;;
11348;SDS011;5729;43.570;27.826;2023-06-14T11:38:09;3.30;;;2.22;;
11348;SDS011;5729;43.570;27.826;2023-06-14T11:40:37;2.55;;;2.35;;
11348;SDS011;5729;43.570;27.826;2023-06-14T11:43:03;3.95;;;2.60;;
11348;SDS011;5729;43.570;27.826;2023-06-14T11:45:29;2.88;;;2.40;;
11348;SDS011;5729;43.570;27.826;2023-06-14T11:47:56;5.85;;;2.60;;
11348;SDS011;5729;43.570;27.826;2023-06-14T11:50:24;2.85;;;2.03;;
11348;SDS011;5729;43.570;27.826;2023-06-14T11:52:54;2.65;;;2.45;;
11348;SDS011;5729;43.570;27.826;2023-06-14T11:55:23;7.88;;;2.50;;
11348;SDS011;5729;43.570;27.826;2023-06-14T11:57:49;2.42;;;2.22;;
11348;SDS011;5729;43.570;27.826;2023-06-14T12:00:15;2.70;;;2.35;;
11348;SDS011;5729;43.570;27.826;2023-06-14T12:02:42;3.63;;;2.35;;
11348;SDS011;5729;43.570;27.826;2023-06-14T12:05:08;2.58;;;2.30;;
11348;SDS011;5729;43.570;27.826;2023-06-14T12:07:38;7.30;;;3.05;;
11348;SDS011;5729;43.570;27.826;2023-06-14T12:10:07;4.45;;;2.47;;
11348;SDS011;5729;43.570;27.826;2023-06-14T12:12:37;3.53;;;2.38;;
11348;SDS011;5729;43.570;27.826;2023-06-14T12:15:05;3.88;;;2.22;;
11348;SDS011;5729;43.570;27.826;2023-06-14T12:17:36;6.20;;;2.40;;
11348;SDS011;5729;43.570;27.826;2023-06-14T12:20:06;3.67;;;2.20;;
11348;SDS011;5729;43.570;27.826;2023-06-14T12:22:36;6.60;;;2.40;;
11348;SDS011;5729;43.570;27.826;2023-06-14T12:25:03;2.65;;;2.20;;
11348;SDS011;5729;43.570;27.826;2023-06-14T12:27:29;3.17;;;2.47;;
11348;SDS011;5729;43.570;27.826;2023-06-14T12:30:01;4.80;;;2.42;;
11348;SDS011;5729;43.570;27.826;2023-06-14T12:32:27;5.40;;;2.63;;
11348;SDS011;5729;43.570;27.826;2023-06-14T12:34:54;4.68;;;2.53;;
11348;SDS011;5729;43.570;27.826;2023-06-14T12:37:20;3.72;;;2.30;;
11348;SDS011;5729;43.570;27.826;2023-06-14T12:39:45;2.95;;;2.75;;
11348;SDS011;5729;43.570;27.826;2023-06-14T12:42:11;7.15;;;2.70;;
11348;SDS011;5729;43.570;27.826;2023-06-14T12:44:38;6.63;;;3.00;;
11348;SDS011;5729;43.570;27.826;2023-06-14T12:47:06;2.90;;;2.45;;
11348;SDS011;5729;43.570;27.826;2023-06-14T12:49:32;2.30;;;2.10;;
11348;SDS011;5729;43.570;27.826;2023-06-14T12:51:58;2.53;;;2.33;;
11348;SDS011;5729;43.570;27.826;2023-06-14T12:54:23;2.50;;;2.30;;
11348;SDS011;5729;43.570;27.826;2023-06-14T12:56:50;2.50;;;2.28;;
11348;SDS011;5729;43.570;27.826;2023-06-14T12:59:16;4.55;;;2.53;;
11348;SDS011;5729;43.570;27.826;2023-06-14T13:01:43;2.58;;;2.38;;
11348;SDS011;5729;43.570;27.826;2023-06-14T13:04:10;3.35;;;2.38;;
11348;SDS011;5729;43.570;27.826;2023-06-14T13:06:35;5.13;;;2.47;;
11348;SDS011;5729;43.570;27.826;2023-06-14T13:09:01;2.40;;;2.08;;
11348;SDS011;5729;43.570;27.826;2023-06-14T13:11:28;5.20;;;2.28;;
11348;SDS011;5729;43.570;27.826;2023-06-14T13:13:54;4.63;;;2.40;;
11348;SDS011;5729;43.570;27.826;2023-06-14T13:16:20;4.35;;;2.60;;
11348;SDS011;5729;43.570;27.826;2023-06-14T13:18:46;8.48;;;2.70;;
11348;SDS011;5729;43.570;27.826;2023-06-14T13:21:11;2.75;;;2.55;;
11348;SDS011;5729;43.570;27.826;2023-06-14T13:23:36;2.97;;;2.50;;
11348;SDS011;5729;43.570;27.826;2023-06-14T13:26:02;3.05;;;2.60;;
11348;SDS011;5729;43.570;27.826;2023-06-14T13:28:27;4.05;;;2.60;;
11348;SDS011;5729;43.570;27.826;2023-06-14T13:30:53;6.93;;;2.60;;
11348;SDS011;5729;43.570;27.826;2023-06-14T13:33:20;2.90;;;2.50;;
11348;SDS011;5729;43.570;27.826;2023-06-14T13:35:46;2.80;;;2.50;;
11348;SDS011;5729;43.570;27.826;2023-06-14T13:38:11;3.35;;;2.40;;
11348;SDS011;5729;43.570;27.826;2023-06-14T13:40:37;3.50;;;2.47;;
11348;SDS011;5729;43.570;27.826;2023-06-14T13:43:02;2.97;;;2.60;;
11348;SDS011;5729;43.570;27.826;2023-06-14T13:45:28;4.57;;;2.80;;
11348;SDS011;5729;43.570;27.826;2023-06-14T13:47:53;4.68;;;2.97;;
11348;SDS011;5729;43.570;27.826;2023-06-14T13:50:19;4.38;;;2.58;;
11348;SDS011;5729;43.570;27.826;2023-06-14T13:52:45;3.35;;;2.63;;
11348;SDS011;5729;43.570;27.826;2023-06-14T13:55:11;5.10;;;2.40;;
11348;SDS011;5729;43.570;27.826;2023-06-14T13:57:36;6.18;;;2.50;;
11348;SDS011;5729;43.570;27.826;2023-06-14T14:00:02;5.80;;;3.13;;
11348;SDS011;5729;43.570;27.826;2023-06-14T14:02:28;6.22;;;3.40;;
11348;SDS011;5729;43.570;27.826;2023-06-14T14:04:55;6.65;;;2.63;;
11348;SDS011;5729;43.570;27.826;2023-06-14T14:07:21;3.33;;;2.97;;
11348;SDS011;5729;43.570;27.826;2023-06-14T14:09:47;6.43;;;3.50;;
11348;SDS011;5729;43.570;27.826;2023-06-14T14:12:12;5.03;;;2.67;;
11348;SDS011;5729;43.570;27.826;2023-06-14T14:14:39;2.85;;;2.53;;
11348;SDS011;5729;43.570;27.826;2023-06-14T14:17:04;4.32;;;2.53;;
11348;SDS011;5729;43.570;27.826;2023-06-14T14:19:30;3.30;;;2.38;;
11348;SDS011;5729;43.570;27.826;2023-06-14T14:21:56;6.22;;;2.63;;
11348;SDS011;5729;43.570;27.826;2023-06-14T14:24:21;4.03;;;2.50;;
11348;SDS011;5729;43.570;27.826;2023-06-14T14:26:47;4.07;;;2.50;;
11348;SDS011;5729;43.570;27.826;2023-06-14T14:29:13;10.52;;;3.58;;
11348;SDS011;5729;43.570;27.826;2023-06-14T14:31:39;8.77;;;3.40;;
11348;SDS011;5729;43.570;27.826;2023-06-14T14:34:05;4.57;;;3.25;;
11348;SDS011;5729;43.570;27.826;2023-06-14T14:36:30;7.80;;;4.55;;
11348;SDS011;5729;43.570;27.826;2023-06-14T14:38:56;5.53;;;3.70;;
11348;SDS011;5729;43.570;27.826;2023-06-14T14:41:21;7.35;;;3.97;;
11348;SDS011;5729;43.570;27.826;2023-06-14T14:43:47;5.97;;;3.63;;
11348;SDS011;5729;43.570;27.826;2023-06-14T14:46:12;8.80;;;4.22;;
11348;SDS011;5729;43.570;27.826;2023-06-14T14:48:38;6.57;;;3.30;;
11348;SDS011;5729;43.570;27.826;2023-06-14T14:51:03;4.32;;;3.50;;
11348;SDS011;5729;43.570;27.826;2023-06-14T14:53:28;5.15;;;3.90;;
11348;SDS011;5729;43.570;27.826;2023-06-14T14:55:54;7.82;;;3.78;;
11348;SDS011;5729;43.570;27.826;2023-06-14T14:58:19;4.07;;;3.00;;
11348;SDS011;5729;43.570;27.826;2023-06-14T15:00:45;7.18;;;3.53;;
11348;SDS011;5729;43.570;27.826;2023-06-14T15:03:11;4.10;;;3.70;;
11348;SDS011;5729;43.570;27.826;2023-06-14T15:05:37;4.20;;;3.67;;
11348;SDS011;5729;43.570;27.826;2023-06-14T15:08:03;10.43;;;4.50;;
11348;SDS011;5729;43.570;27.826;2023-06-14T15:10:30;8.48;;;5.18;;
11348;SDS011;5729;43.570;27.826;2023-06-14T15:12:55;12.55;;;4.50;;
11348;SDS011;5729;43.570;27.826;2023-06-14T15:15:21;5.85;;;4.88;;
11348;SDS011;5729;43.570;27.826;2023-06-14T15:17:47;9.98;;;5.18;;
11348;SDS011;5729;43.570;27.826;2023-06-14T15:20:13;5.50;;;4.28;;
11348;SDS011;5729;43.570;27.826;2023-06-14T15:22:39;11.40;;;4.28;;